createdAt,value
2019-05-21T00:02:06.774Z,80.05
2019-05-21T00:04:38.885Z,80.27
2019-05-21T00:07:10.744Z,80.16
2019-05-21T00:09:42.814Z,80.25
2019-05-21T00:12:14.572Z,80.31
2019-05-21T00:14:46.393Z,80.12
2019-05-21T00:17:18.245Z,79.99
2019-05-21T00:19:49.858Z,80.00
2019-05-21T00:22:21.554Z,80.15
2019-05-21T00:24:53.511Z,80.07
2019-05-21T00:27:25.329Z,80.03
2019-05-21T00:30:32.795Z,80.01
2019-05-21T00:33:40.168Z,80.33
2019-05-21T00:36:49.482Z,80.12
2019-05-21T00:39:57.222Z,80.02
2019-05-21T00:42:30.984Z,80.12
2019-05-21T00:45:02.759Z,79.90
2019-05-21T00:47:34.062Z,79.89
2019-05-21T00:50:07.020Z,79.99
2019-05-21T00:52:38.891Z,80.12
2019-05-21T00:55:10.951Z,79.96
2019-05-21T00:57:42.963Z,79.98
2019-05-21T01:00:15.719Z,79.90
2019-05-21T01:02:47.922Z,80.03
2019-05-21T01:05:19.434Z,80.03
2019-05-21T01:07:51.036Z,79.84
2019-05-21T01:10:22.541Z,80.03
2019-05-21T01:12:54.536Z,80.13
2019-05-21T01:15:25.789Z,80.35
2019-05-21T01:17:57.573Z,80.19
2019-05-21T01:20:29.224Z,80.12
2019-05-21T01:23:01.067Z,80.16
2019-05-21T01:25:33.274Z,80.16
2019-05-21T01:28:05.444Z,80.39
2019-05-21T01:30:37.503Z,80.42
2019-05-21T01:33:09.227Z,80.22
2019-05-21T01:35:40.785Z,80.31
2019-05-21T01:38:12.432Z,80.22
2019-05-21T01:40:44.262Z,80.15
2019-05-21T01:43:16.204Z,80.38
2019-05-21T01:45:48.527Z,80.36
2019-05-21T01:48:19.930Z,80.41
2019-05-21T01:50:52.224Z,80.42
2019-05-21T01:53:23.513Z,80.32
2019-05-21T01:55:55.052Z,80.75
2019-05-21T01:58:28.259Z,80.86
2019-05-21T02:00:59.546Z,81.08
2019-05-21T02:03:31.471Z,81.26
2019-05-21T02:06:03.092Z,81.25
2019-05-21T02:08:34.717Z,81.22
2019-05-21T02:11:07.017Z,81.16
2019-05-21T02:13:39.792Z,81.08
2019-05-21T02:16:11.665Z,81.11
2019-05-21T02:18:44.343Z,81.34
2019-05-21T02:21:17.199Z,81.27
2019-05-21T02:23:49.180Z,81.27
2019-05-21T02:26:21.529Z,81.24
2019-05-21T02:28:54.481Z,80.91
2019-05-21T02:31:26.188Z,80.82
2019-05-21T02:33:58.532Z,81.00
2019-05-21T02:36:31.167Z,81.04
2019-05-21T02:39:04.439Z,81.21
2019-05-21T02:41:35.725Z,81.40
2019-05-21T02:44:07.095Z,81.19
2019-05-21T02:46:38.687Z,81.13
2019-05-21T02:49:11.282Z,80.90
2019-05-21T02:51:43.221Z,80.82
2019-05-21T02:54:14.769Z,80.77
2019-05-21T02:56:47.066Z,80.76
2019-05-21T02:59:18.929Z,80.61
2019-05-21T03:01:56.711Z,80.61
2019-05-21T03:04:29.576Z,80.38
2019-05-21T03:07:18.893Z,80.37
2019-05-21T03:09:50.487Z,80.16
2019-05-21T03:12:21.817Z,80.28
2019-05-21T03:14:53.722Z,80.07
2019-05-21T03:17:26.769Z,80.19
2019-05-21T03:19:58.236Z,80.21
2019-05-21T03:22:29.839Z,80.18
2019-05-21T03:25:02.767Z,80.18
2019-05-21T03:27:34.705Z,80.01
2019-05-21T03:30:06.280Z,79.70
2019-05-21T03:32:37.608Z,79.71
2019-05-21T03:35:09.885Z,79.60
2019-05-21T03:37:41.994Z,79.62
2019-05-21T03:40:13.649Z,79.76
2019-05-21T03:42:45.758Z,79.96
2019-05-21T03:45:17.670Z,79.66
2019-05-21T03:47:49.952Z,79.56
2019-05-21T03:50:21.895Z,79.71
2019-05-21T03:52:54.366Z,79.42
2019-05-21T03:55:25.877Z,79.21
2019-05-21T03:57:57.595Z,79.03
2019-05-21T04:00:29.472Z,79.24
2019-05-21T04:03:01.538Z,79.07
2019-05-21T04:05:32.826Z,79.46
2019-05-21T04:08:04.776Z,79.72
2019-05-21T04:10:37.001Z,79.97
2019-05-21T04:13:09.692Z,80.11
2019-05-21T04:16:10.413Z,80.07
2019-05-21T04:19:01.632Z,79.90
2019-05-21T04:21:33.718Z,80.16
2019-05-21T04:24:08.809Z,80.08
2019-05-21T04:26:39.365Z,80.21
2019-05-21T04:29:11.250Z,80.10
2019-05-21T04:31:43.277Z,80.31
2019-05-21T04:34:14.587Z,80.34
2019-05-21T04:36:46.898Z,80.07
2019-05-21T04:39:18.496Z,80.22
2019-05-21T04:41:50.433Z,80.20
2019-05-21T04:44:22.242Z,80.47
2019-05-21T04:46:54.579Z,80.48
2019-05-21T04:49:26.290Z,80.26
2019-05-21T04:51:58.675Z,80.17
2019-05-21T04:54:30.396Z,80.30
2019-05-21T04:57:14.695Z,80.16
2019-05-21T04:59:47.013Z,80.19
2019-05-21T05:02:19.097Z,80.39
2019-05-21T05:04:51.259Z,80.38
2019-05-21T05:07:28.102Z,80.50
2019-05-21T05:09:56.994Z,80.73
2019-05-21T05:12:28.819Z,80.50
2019-05-21T05:15:00.419Z,80.19
2019-05-21T05:17:32.361Z,79.88
2019-05-21T05:20:04.300Z,79.90
2019-05-21T05:22:35.918Z,79.49
2019-05-21T05:25:07.803Z,79.16
2019-05-21T05:27:39.155Z,79.18
2019-05-21T05:30:11.566Z,79.29
2019-05-21T05:32:42.995Z,79.06
2019-05-21T05:35:15.130Z,78.77
2019-05-21T05:37:48.958Z,79.01
2019-05-21T05:40:20.592Z,78.94
2019-05-21T05:42:52.423Z,78.77
2019-05-21T05:45:23.852Z,78.46
2019-05-21T05:47:55.441Z,77.95
2019-05-21T05:50:30.652Z,78.22
2019-05-21T05:53:02.089Z,78.59
2019-05-21T05:55:33.501Z,78.59
2019-05-21T05:58:05.431Z,77.88
2019-05-21T06:00:37.647Z,77.61
2019-05-21T06:03:08.920Z,76.97
2019-05-21T06:05:39.951Z,75.80
2019-05-21T06:08:11.803Z,75.84
2019-05-21T06:10:43.113Z,75.46
2019-05-21T06:13:16.943Z,75.40
2019-05-21T06:15:49.423Z,74.30
2019-05-21T06:18:21.091Z,73.72
2019-05-21T06:20:52.935Z,73.71
2019-05-21T06:23:24.317Z,72.95
2019-05-21T06:25:56.253Z,72.48
2019-05-21T06:28:28.356Z,73.07
2019-05-21T06:31:00.538Z,71.63
2019-05-21T06:33:35.079Z,72.04
2019-05-21T06:36:06.600Z,71.50
2019-05-21T06:38:52.440Z,71.64
2019-05-21T06:41:24.520Z,72.07
2019-05-21T06:43:56.583Z,70.91
2019-05-21T06:46:28.168Z,69.99
2019-05-21T06:48:59.923Z,69.89
2019-05-21T06:51:31.928Z,68.02
2019-05-21T06:54:03.853Z,67.04
2019-05-21T06:56:36.043Z,65.96
2019-05-21T06:59:08.233Z,65.46
2019-05-21T07:01:40.447Z,64.44
2019-05-21T07:04:12.791Z,63.96
2019-05-21T07:06:44.944Z,63.20
2019-05-21T07:09:19.122Z,62.95
2019-05-21T07:11:50.933Z,63.08
2019-05-21T07:14:23.455Z,62.44
2019-05-21T07:16:55.658Z,61.20
2019-05-21T07:19:27.320Z,61.31
2019-05-21T07:22:11.986Z,62.77
2019-05-21T07:24:34.414Z,62.99
2019-05-21T07:27:06.186Z,63.58
2019-05-21T07:29:38.389Z,63.82
2019-05-21T07:32:10.439Z,64.16
2019-05-21T07:34:42.338Z,64.31
2019-05-21T07:37:15.162Z,62.34
2019-05-21T07:39:46.782Z,61.66
2019-05-21T07:42:20.155Z,62.55
2019-05-21T07:44:52.115Z,62.65
2019-05-21T07:47:24.077Z,62.04
2019-05-21T07:49:56.268Z,61.79
2019-05-21T07:52:28.056Z,63.52
2019-05-21T07:55:00.422Z,61.76
2019-05-21T07:57:32.228Z,60.34
2019-05-21T08:00:03.529Z,59.57
2019-05-21T08:02:35.546Z,59.25
2019-05-21T08:05:08.572Z,57.04
2019-05-21T08:07:40.685Z,56.53
2019-05-21T08:10:12.360Z,55.63
2019-05-21T08:12:44.300Z,55.94
2019-05-21T08:15:16.270Z,56.48
2019-05-21T08:17:47.755Z,57.40
2019-05-21T08:20:19.458Z,59.99
2019-05-21T08:22:51.186Z,61.54
2019-05-21T08:25:23.021Z,63.17
2019-05-21T08:27:54.955Z,64.26
2019-05-21T08:30:26.791Z,63.57
2019-05-21T08:32:59.087Z,63.27
2019-05-21T08:35:31.422Z,62.81
2019-05-21T08:38:06.579Z,63.07
2019-05-21T08:40:37.010Z,63.43
2019-05-21T08:43:08.262Z,62.85
2019-05-21T08:45:39.478Z,62.37
2019-05-21T08:48:12.309Z,63.62
2019-05-21T08:50:43.784Z,63.91
2019-05-21T08:53:15.216Z,62.78
2019-05-21T08:55:47.090Z,60.63
2019-05-21T08:58:19.285Z,59.42
2019-05-21T09:00:51.191Z,58.85
2019-05-21T09:03:23.563Z,58.66
2019-05-21T09:05:55.638Z,58.65
2019-05-21T09:08:27.161Z,56.88
2019-05-21T09:10:59.245Z,54.26
2019-05-21T09:13:30.943Z,55.05
2019-05-21T09:16:02.459Z,54.11
2019-05-21T09:18:34.124Z,51.91
2019-05-21T09:21:05.612Z,55.03
2019-05-21T09:23:37.408Z,56.96
2019-05-21T09:26:09.210Z,57.51
2019-05-21T09:28:41.184Z,56.35
2019-05-21T09:31:13.075Z,57.21
2019-05-21T09:33:45.221Z,58.00
2019-05-21T09:36:17.194Z,57.45
2019-05-21T09:38:49.334Z,57.47
2019-05-21T09:41:21.610Z,57.95
2019-05-21T09:43:53.540Z,58.52
2019-05-21T09:46:25.329Z,57.85
2019-05-21T09:48:56.689Z,59.09
2019-05-21T09:51:28.341Z,60.77
2019-05-21T09:53:59.893Z,62.11
2019-05-21T09:56:34.454Z,62.38
2019-05-21T09:59:19.407Z,62.89
2019-05-21T10:01:53.119Z,62.02
2019-05-21T10:04:24.743Z,62.02
2019-05-21T10:06:56.450Z,61.60
2019-05-21T10:09:27.756Z,62.52
2019-05-21T10:11:59.357Z,63.43
2019-05-21T10:14:34.217Z,63.43
2019-05-21T10:17:05.477Z,62.97
2019-05-21T10:19:37.052Z,61.46
2019-05-21T10:22:09.534Z,60.33
2019-05-21T10:24:42.015Z,60.32
2019-05-21T10:27:13.319Z,59.73
2019-05-21T10:29:44.965Z,58.29
2019-05-21T10:32:16.792Z,58.77
2019-05-21T10:34:49.844Z,60.20
2019-05-21T10:37:21.770Z,61.16
2019-05-21T10:39:53.183Z,61.12
2019-05-21T10:42:25.331Z,60.69
2019-05-21T10:44:57.145Z,60.23
2019-05-21T10:47:28.837Z,58.16
2019-05-21T10:50:01.253Z,58.66
2019-05-21T10:52:33.078Z,56.72
2019-05-21T10:55:04.662Z,56.98
2019-05-21T10:57:36.572Z,58.29
2019-05-21T11:00:11.195Z,57.26
2019-05-21T11:02:48.408Z,57.68
2019-05-21T11:05:32.779Z,59.27
2019-05-21T11:08:22.800Z,59.98
2019-05-21T11:10:38.960Z,59.10
2019-05-21T11:13:10.892Z,59.02
2019-05-21T11:15:42.827Z,59.10
2019-05-21T11:18:14.929Z,59.07
2019-05-21T11:20:46.516Z,58.50
2019-05-21T11:23:18.328Z,59.51
2019-05-21T11:25:50.368Z,58.52
2019-05-21T11:28:21.906Z,59.75
2019-05-21T11:30:53.524Z,60.52
2019-05-21T11:33:25.380Z,60.81
2019-05-21T11:35:56.941Z,61.58
2019-05-21T11:38:39.434Z,62.19
2019-05-21T11:41:02.301Z,62.60
2019-05-21T11:43:34.179Z,62.62
2019-05-21T11:46:06.107Z,62.48
2019-05-21T11:48:37.420Z,62.18
2019-05-21T11:51:12.645Z,62.51
2019-05-21T11:53:43.501Z,61.21
2019-05-21T11:56:15.047Z,59.96
2019-05-21T11:58:46.670Z,60.57
2019-05-21T12:01:17.969Z,60.91
2019-05-21T12:03:49.283Z,60.67
2019-05-21T12:06:20.371Z,62.69
2019-05-21T12:08:56.784Z,62.72
2019-05-21T12:11:25.654Z,63.82
2019-05-21T12:13:56.943Z,63.86
2019-05-21T12:16:28.111Z,63.55
2019-05-21T12:18:59.256Z,63.45
2019-05-21T12:21:30.319Z,64.10
2019-05-21T12:24:01.888Z,63.33
2019-05-21T12:26:33.036Z,63.22
2019-05-21T12:29:04.551Z,62.52
2019-05-21T12:31:36.050Z,63.94
2019-05-21T12:34:07.526Z,63.94
2019-05-21T12:36:38.976Z,65.08
2019-05-21T12:39:14.218Z,65.78
2019-05-21T12:41:43.299Z,65.56
2019-05-21T12:44:14.378Z,64.96
2019-05-21T12:46:46.617Z,66.03
2019-05-21T12:49:17.716Z,66.80
2019-05-21T12:51:49.039Z,66.84
2019-05-21T12:54:20.052Z,67.09
2019-05-21T12:56:51.372Z,66.60
2019-05-21T12:59:22.524Z,66.37
2019-05-21T13:01:53.452Z,66.85
2019-05-21T13:04:24.567Z,67.49
2019-05-21T13:06:55.997Z,67.29
2019-05-21T13:09:32.686Z,67.47
2019-05-21T13:11:59.737Z,67.02
2019-05-21T13:14:31.540Z,66.32
2019-05-21T13:17:02.678Z,66.64
2019-05-21T13:19:33.946Z,67.36
2019-05-21T13:22:05.085Z,66.81
2019-05-21T13:24:36.177Z,66.92
2019-05-21T13:27:07.472Z,67.86
2019-05-21T13:29:38.897Z,68.03
2019-05-21T13:32:10.010Z,68.29
2019-05-21T13:34:41.130Z,68.74
2019-05-21T13:37:12.186Z,68.81
2019-05-21T13:39:49.892Z,68.46
2019-05-21T13:42:16.254Z,68.27
2019-05-21T13:44:47.377Z,67.75
2019-05-21T13:47:18.449Z,67.94
2019-05-21T13:49:49.526Z,67.98
2019-05-21T13:52:20.995Z,68.96
2019-05-21T13:54:52.397Z,69.90
2019-05-21T13:57:23.580Z,69.72
2019-05-21T13:59:54.671Z,69.81
2019-05-21T14:02:25.833Z,69.33
2019-05-21T14:04:57.412Z,68.27
2019-05-21T14:07:29.651Z,67.88
2019-05-21T14:10:14.126Z,67.42
2019-05-21T14:12:34.905Z,67.27
2019-05-21T14:15:06.694Z,67.16
2019-05-21T14:17:37.808Z,68.17
2019-05-21T14:20:09.186Z,68.46
2019-05-21T14:22:40.148Z,68.65
2019-05-21T14:25:11.443Z,68.59
2019-05-21T14:27:44.897Z,69.19
2019-05-21T14:30:15.870Z,70.16
2019-05-21T14:32:48.492Z,71.15
2019-05-21T14:35:19.630Z,72.06
2019-05-21T14:37:50.900Z,72.55
2019-05-21T14:40:31.518Z,73.19
2019-05-21T14:43:00.344Z,72.88
2019-05-21T14:45:33.944Z,72.40
2019-05-21T14:48:03.291Z,72.57
2019-05-21T14:50:34.768Z,72.19
2019-05-21T14:53:05.848Z,71.78
2019-05-21T14:55:36.924Z,71.45
2019-05-21T14:58:07.959Z,71.27
2019-05-21T15:00:39.037Z,71.05
2019-05-21T15:03:24.359Z,70.91
2019-05-21T15:05:43.486Z,70.76
2019-05-21T15:08:14.585Z,70.62
2019-05-21T15:10:48.909Z,70.68
2019-05-21T15:13:18.428Z,70.83
2019-05-21T15:15:49.743Z,70.88
2019-05-21T15:18:22.198Z,71.22
2019-05-21T15:21:02.563Z,71.13
2019-05-21T15:23:33.780Z,71.31
2019-05-21T15:26:05.647Z,71.72
2019-05-21T15:28:36.755Z,72.20
2019-05-21T15:31:08.357Z,72.50
2019-05-21T15:33:39.750Z,72.77
2019-05-21T15:36:11.128Z,73.27
2019-05-21T15:38:50.349Z,73.33
2019-05-21T15:41:15.150Z,73.41
2019-05-21T15:43:47.138Z,73.76
2019-05-21T15:46:18.154Z,74.22
2019-05-21T15:48:49.357Z,75.06
2019-05-21T15:51:20.681Z,75.06
2019-05-21T15:53:51.828Z,75.19
2019-05-21T15:56:22.861Z,75.03
2019-05-21T15:58:57.186Z,75.12
2019-05-21T16:01:28.433Z,75.67
2019-05-21T16:03:59.610Z,76.10
2019-05-21T16:06:32.082Z,76.23
2019-05-21T16:09:05.158Z,76.56
2019-05-21T16:11:36.668Z,76.76
2019-05-21T16:14:07.745Z,76.51
2019-05-21T16:16:38.821Z,76.84
2019-05-21T16:19:10.029Z,76.74
2019-05-21T16:21:41.055Z,76.58
2019-05-21T16:24:12.095Z,75.98
2019-05-21T16:26:43.342Z,75.61
2019-05-21T16:29:14.676Z,75.37
2019-05-21T16:31:45.869Z,75.48
2019-05-21T16:34:17.234Z,75.13
2019-05-21T16:36:48.448Z,74.88
2019-05-21T16:39:21.645Z,74.83
2019-05-21T16:41:53.112Z,74.54
2019-05-21T16:44:24.383Z,74.88
2019-05-21T16:46:55.836Z,74.67
2019-05-21T16:49:27.188Z,74.50
2019-05-21T16:51:58.578Z,74.50
2019-05-21T16:54:29.671Z,74.58
2019-05-21T16:57:00.787Z,74.84
2019-05-21T16:59:32.119Z,75.37
2019-05-21T17:02:04.334Z,75.27
2019-05-21T17:04:35.472Z,74.91
2019-05-21T17:07:07.245Z,74.58
2019-05-21T17:09:38.475Z,74.34
2019-05-21T17:12:10.233Z,73.81
2019-05-21T17:14:41.591Z,73.81
2019-05-21T17:17:12.657Z,73.60
2019-05-21T17:19:44.047Z,73.82
2019-05-21T17:22:15.097Z,73.71
2019-05-21T17:24:46.112Z,73.62
2019-05-21T17:27:17.142Z,73.08
2019-05-21T17:29:48.314Z,72.50
2019-05-21T17:32:19.663Z,72.41
2019-05-21T17:34:50.752Z,72.11
2019-05-21T17:37:22.391Z,72.31
2019-05-21T17:39:54.004Z,71.98
2019-05-21T17:42:25.154Z,71.74
2019-05-21T17:44:56.542Z,71.27
2019-05-21T17:47:27.996Z,71.33
2019-05-21T17:49:59.094Z,71.37
2019-05-21T17:52:30.085Z,71.34
2019-05-21T17:55:01.205Z,71.48
2019-05-21T17:57:33.675Z,71.46
2019-05-21T18:00:06.893Z,70.97
2019-05-21T18:02:39.562Z,71.00
2019-05-21T18:05:11.290Z,70.83
2019-05-21T18:07:42.946Z,70.60
2019-05-21T18:10:15.257Z,70.65
2019-05-21T18:12:46.251Z,71.02
2019-05-21T18:15:18.298Z,70.74
2019-05-21T18:17:49.409Z,70.67
2019-05-21T18:20:21.111Z,70.75
2019-05-21T18:22:52.537Z,70.64
2019-05-21T18:25:24.141Z,70.78
2019-05-21T18:27:55.231Z,70.61
2019-05-21T18:30:26.309Z,70.62
2019-05-21T18:32:57.584Z,70.59
2019-05-21T18:35:28.688Z,70.76
2019-05-21T18:38:00.069Z,70.64
2019-05-21T18:40:31.273Z,70.57
2019-05-21T18:43:03.011Z,70.85
2019-05-21T18:45:35.131Z,71.02
2019-05-21T18:48:06.344Z,70.75
2019-05-21T18:50:37.942Z,70.91
2019-05-21T18:53:09.406Z,71.28
2019-05-21T18:55:40.657Z,71.62
2019-05-21T18:58:11.850Z,71.47
2019-05-21T19:00:43.338Z,71.57
2019-05-21T19:03:14.460Z,71.51
2019-05-21T19:05:45.824Z,71.68
2019-05-21T19:08:16.968Z,71.51
2019-05-21T19:10:48.736Z,71.75
2019-05-21T19:13:19.931Z,72.18
2019-05-21T19:15:51.024Z,72.30
2019-05-21T19:18:22.788Z,72.40
2019-05-21T19:20:54.012Z,72.63
2019-05-21T19:23:25.436Z,72.46
2019-05-21T19:25:56.916Z,72.63
2019-05-21T19:28:27.922Z,72.34
2019-05-21T19:30:59.240Z,72.50
2019-05-21T19:33:30.802Z,72.77
2019-05-21T19:36:02.127Z,72.89
2019-05-21T19:38:33.251Z,72.55
2019-05-21T19:41:04.402Z,72.44
2019-05-21T19:43:36.057Z,72.48
2019-05-21T19:46:07.734Z,72.60
2019-05-21T19:48:38.746Z,72.69
2019-05-21T19:51:09.899Z,72.71
2019-05-21T19:53:41.332Z,72.90
2019-05-21T19:56:13.041Z,72.69
2019-05-21T19:58:44.469Z,72.68
2019-05-21T20:01:15.953Z,72.70
2019-05-21T20:03:47.308Z,72.87
2019-05-21T20:06:20.102Z,72.88
2019-05-21T20:08:51.261Z,73.01
2019-05-21T20:11:22.813Z,73.20
2019-05-21T20:13:54.327Z,73.08
2019-05-21T20:16:26.170Z,73.38
2019-05-21T20:18:58.208Z,73.33
2019-05-21T20:21:29.956Z,73.14
2019-05-21T20:24:01.902Z,72.94
2019-05-21T20:26:34.456Z,73.04
2019-05-21T20:29:09.272Z,72.94
2019-05-21T20:31:42.965Z,72.94
2019-05-21T20:34:14.458Z,72.79
2019-05-21T20:36:45.808Z,72.67
2019-05-21T20:39:18.619Z,72.83
2019-05-21T20:41:50.286Z,73.03
2019-05-21T20:44:21.863Z,73.26
2019-05-21T20:46:54.787Z,73.76
2019-05-21T20:49:26.222Z,74.45
2019-05-21T20:51:57.297Z,75.18
2019-05-21T20:54:29.913Z,75.64
2019-05-21T20:57:01.269Z,76.35
2019-05-21T20:59:32.873Z,76.28
2019-05-21T21:02:08.094Z,76.29
2019-05-21T21:04:37.587Z,76.31
2019-05-21T21:07:08.655Z,76.64
2019-05-21T21:09:40.294Z,76.50
2019-05-21T21:12:11.696Z,76.57
2019-05-21T21:14:44.353Z,76.52
2019-05-21T21:17:16.277Z,76.30
2019-05-21T21:19:47.539Z,76.20
2019-05-21T21:22:19.417Z,76.01
2019-05-21T21:24:50.737Z,75.89
2019-05-21T21:27:22.862Z,75.95
2019-05-21T21:29:54.147Z,75.95
2019-05-21T21:32:25.245Z,75.89
2019-05-21T21:34:56.601Z,75.82
2019-05-21T21:37:28.142Z,75.65
2019-05-21T21:40:00.259Z,75.34
2019-05-21T21:42:31.368Z,75.38
2019-05-21T21:45:02.390Z,75.46
2019-05-21T21:47:33.687Z,75.38
2019-05-21T21:50:06.556Z,75.36
2019-05-21T21:52:38.248Z,75.12
2019-05-21T21:55:09.417Z,75.06
2019-05-21T21:57:40.713Z,74.90
2019-05-21T22:00:39.614Z,75.05
2019-05-21T22:03:11.548Z,75.05
2019-05-21T22:05:42.754Z,74.81
2019-05-21T22:08:14.318Z,74.52
2019-05-21T22:10:46.001Z,74.46
2019-05-21T22:13:18.621Z,74.20
2019-05-21T22:15:49.739Z,73.98
2019-05-21T22:18:20.979Z,74.02
2019-05-21T22:20:52.365Z,74.04
2019-05-21T22:23:23.541Z,74.00
2019-05-21T22:25:54.798Z,73.58
2019-05-21T22:28:25.867Z,73.69
2019-05-21T22:30:57.489Z,73.86
2019-05-21T22:33:29.138Z,73.91
2019-05-21T22:36:00.490Z,73.75
2019-05-21T22:38:32.893Z,73.65
2019-05-21T22:41:03.995Z,73.86
2019-05-21T22:43:35.348Z,73.77
2019-05-21T22:46:06.456Z,73.94
2019-05-21T22:48:37.936Z,74.02
2019-05-21T22:51:09.230Z,74.23
2019-05-21T22:53:40.987Z,73.73
2019-05-21T22:56:12.011Z,73.91
2019-05-21T22:58:42.977Z,73.87
2019-05-21T23:01:15.909Z,73.86
2019-05-21T23:03:47.186Z,73.94
2019-05-21T23:06:18.508Z,73.77
2019-05-21T23:08:49.607Z,73.64
2019-05-21T23:11:23.023Z,73.96
2019-05-21T23:13:53.461Z,73.76
2019-05-21T23:16:25.808Z,73.82
2019-05-21T23:19:11.666Z,73.45
2019-05-21T23:21:46.348Z,73.50
2019-05-21T23:24:22.135Z,73.75
2019-05-21T23:26:53.808Z,73.75
2019-05-21T23:29:25.771Z,73.69
2019-05-21T23:31:56.862Z,73.56
2019-05-21T23:34:29.277Z,73.60
2019-05-21T23:37:02.456Z,73.65
2019-05-21T23:39:34.865Z,73.45
2019-05-21T23:42:08.671Z,73.72
2019-05-21T23:44:41.190Z,73.63
2019-05-21T23:47:15.297Z,73.54
2019-05-21T23:49:46.573Z,73.61
2019-05-21T23:52:17.714Z,73.52
2019-05-21T23:54:48.828Z,73.29
2019-05-21T23:57:27.215Z,73.39
2019-05-21T23:59:58.289Z,73.45
